createdAt,value
2019-05-07T00:01:18.918Z,101351.30
2019-05-07T00:03:48.876Z,101348.55
2019-05-07T00:06:18.869Z,101347.16
2019-05-07T00:08:48.837Z,101350.21
2019-05-07T00:11:18.841Z,101349.59
2019-05-07T00:13:48.809Z,101350.92
2019-05-07T00:16:18.806Z,101344.14
2019-05-07T00:18:48.839Z,101340.14
2019-05-07T00:21:18.838Z,101335.90
2019-05-07T00:23:48.785Z,101342.80
2019-05-07T00:26:18.757Z,101336.09
2019-05-07T00:28:48.717Z,101342.41
2019-05-07T00:31:18.711Z,101337.97
2019-05-07T00:33:48.663Z,101338.09
2019-05-07T00:36:33.793Z,101332.02
2019-05-07T00:39:14.838Z,101340.82
2019-05-07T00:41:52.195Z,101340.35
2019-05-07T00:44:22.693Z,101335.59
2019-05-07T00:46:52.707Z,101328.20
2019-05-07T00:49:24.984Z,101329.83
2019-05-07T00:51:54.978Z,101337.13
2019-05-07T00:54:24.971Z,101327.45
2019-05-07T00:56:54.952Z,101334.80
2019-05-07T00:59:24.924Z,101340.38
2019-05-07T01:01:54.928Z,101337.27
2019-05-07T01:04:24.909Z,101339.78
2019-05-07T01:06:54.910Z,101346.70
2019-05-07T01:09:24.896Z,101345.18
2019-05-07T01:11:54.970Z,101351.38
2019-05-07T01:14:24.970Z,101348.61
2019-05-07T01:16:54.964Z,101342.63
2019-05-07T01:19:24.970Z,101342.27
2019-05-07T01:21:54.942Z,101343.95
2019-05-07T01:24:24.930Z,101347.88
2019-05-07T01:26:54.898Z,101348.50
2019-05-07T01:29:24.909Z,101338.70
2019-05-07T01:32:03.216Z,101342.00
2019-05-07T01:34:42.955Z,101343.92
2019-05-07T01:37:12.981Z,101345.05
2019-05-07T01:39:42.986Z,101348.42
2019-05-07T01:42:12.981Z,101347.30
2019-05-07T01:44:42.988Z,101347.07
2019-05-07T01:47:13.226Z,101344.06
2019-05-07T01:49:43.276Z,101339.53
2019-05-07T01:52:13.539Z,101343.04
2019-05-07T01:54:43.605Z,101334.16
2019-05-07T01:57:13.550Z,101338.86
2019-05-07T01:59:43.535Z,101341.56
2019-05-07T02:02:22.769Z,101344.58
2019-05-07T02:05:17.136Z,101342.95
2019-05-07T02:07:53.298Z,101342.14
2019-05-07T02:10:34.006Z,101339.53
2019-05-07T02:13:04.048Z,101347.95
2019-05-07T02:15:34.025Z,101346.98
2019-05-07T02:18:04.034Z,101350.97
2019-05-07T02:20:34.014Z,101360.03
2019-05-07T02:23:04.072Z,101356.92
2019-05-07T02:25:34.036Z,101351.97
2019-05-07T02:28:04.416Z,101363.72
2019-05-07T02:30:35.187Z,101356.31
2019-05-07T02:33:05.592Z,101355.20
2019-05-07T02:35:35.574Z,101354.80
2019-05-07T02:38:24.582Z,101352.89
2019-05-07T02:41:03.187Z,101357.45
2019-05-07T02:43:33.938Z,101361.58
2019-05-07T02:46:26.437Z,101358.83
2019-05-07T02:48:54.203Z,101360.70
2019-05-07T02:51:29.792Z,101357.16
2019-05-07T02:54:08.662Z,101363.55
2019-05-07T02:56:38.709Z,101363.31
2019-05-07T02:59:08.668Z,101359.72
2019-05-07T03:01:38.801Z,101355.97
2019-05-07T03:04:08.789Z,101353.27
2019-05-07T03:06:38.861Z,101353.88
2019-05-07T03:09:08.824Z,101349.27
2019-05-07T03:11:38.823Z,101348.69
2019-05-07T03:14:08.910Z,101354.95
2019-05-07T03:16:44.222Z,101361.48
2019-05-07T03:19:13.324Z,101357.69
2019-05-07T03:22:03.746Z,101358.16
2019-05-07T03:24:55.598Z,101357.70
2019-05-07T03:27:25.642Z,101355.21
2019-05-07T03:30:16.083Z,101353.81
2019-05-07T03:32:55.617Z,101348.65
2019-05-07T03:35:55.636Z,101351.33
2019-05-07T03:38:22.894Z,101357.86
2019-05-07T03:40:53.332Z,101362.24
2019-05-07T03:43:25.024Z,101363.50
2019-05-07T03:46:14.422Z,101366.16
2019-05-07T03:48:46.206Z,101361.55
2019-05-07T03:51:16.204Z,101359.77
2019-05-07T03:53:46.174Z,101366.63
2019-05-07T03:56:16.177Z,101365.63
2019-05-07T03:58:46.211Z,101367.21
2019-05-07T04:01:16.174Z,101367.15
2019-05-07T04:03:46.175Z,101368.24
2019-05-07T04:06:16.126Z,101361.81
2019-05-07T04:08:46.132Z,101378.26
2019-05-07T04:11:16.110Z,101366.17
2019-05-07T04:13:46.090Z,101363.22
2019-05-07T04:16:16.067Z,101365.03
2019-05-07T04:18:46.048Z,101367.03
2019-05-07T04:21:16.013Z,101366.78
2019-05-07T04:23:46.007Z,101369.82
2019-05-07T04:26:28.059Z,101365.75
2019-05-07T04:29:06.877Z,101371.69
2019-05-07T04:31:43.038Z,101372.53
2019-05-07T04:34:17.181Z,101377.61
2019-05-07T04:36:49.108Z,101377.08
2019-05-07T04:39:19.113Z,101380.59
2019-05-07T04:41:49.110Z,101377.27
2019-05-07T04:44:19.096Z,101376.84
2019-05-07T04:46:49.071Z,101379.03
2019-05-07T04:49:19.067Z,101376.77
2019-05-07T04:52:03.946Z,101372.61
2019-05-07T04:54:33.108Z,101383.13
2019-05-07T04:57:03.783Z,101380.77
2019-05-07T04:59:33.950Z,101385.54
2019-05-07T05:02:13.883Z,101383.12
2019-05-07T05:04:44.127Z,101384.70
2019-05-07T05:07:14.168Z,101386.35
2019-05-07T05:09:44.188Z,101385.42
2019-05-07T05:12:14.178Z,101383.38
2019-05-07T05:14:44.176Z,101386.10
2019-05-07T05:17:14.161Z,101384.48
2019-05-07T05:19:44.169Z,101391.86
2019-05-07T05:22:36.267Z,101396.95
2019-05-07T05:25:13.510Z,101395.93
2019-05-07T05:27:43.493Z,101394.97
2019-05-07T05:30:17.234Z,101396.52
2019-05-07T05:32:47.211Z,101397.34
2019-05-07T05:35:22.190Z,101400.14
2019-05-07T05:37:52.308Z,101391.11
2019-05-07T05:40:22.754Z,101401.77
2019-05-07T05:42:58.720Z,101408.70
2019-05-07T05:45:36.551Z,101405.84
2019-05-07T05:48:08.526Z,101406.16
2019-05-07T05:50:48.891Z,101414.59
2019-05-07T05:53:33.741Z,101411.30
2019-05-07T05:56:07.626Z,101404.67
2019-05-07T05:58:59.397Z,101407.86
2019-05-07T06:01:48.312Z,101401.02
2019-05-07T06:04:25.950Z,101403.58
2019-05-07T06:07:17.878Z,101404.30
2019-05-07T06:10:19.222Z,101398.48
2019-05-07T06:12:53.862Z,101398.83
2019-05-07T06:15:42.817Z,101407.45
2019-05-07T06:18:32.697Z,101411.00
2019-05-07T06:21:14.192Z,101407.31
2019-05-07T06:23:52.831Z,101410.64
2019-05-07T06:26:22.857Z,101407.11
2019-05-07T06:28:52.879Z,101412.45
2019-05-07T06:31:22.818Z,101416.06
2019-05-07T06:33:52.824Z,101416.11
2019-05-07T06:36:22.811Z,101420.14
2019-05-07T06:39:02.209Z,101416.12
2019-05-07T06:41:50.117Z,101416.92
2019-05-07T06:44:22.589Z,101419.97
2019-05-07T06:46:52.849Z,101419.88
2019-05-07T06:49:22.933Z,101422.14
2019-05-07T06:51:52.975Z,101426.37
2019-05-07T06:54:22.977Z,101422.78
2019-05-07T06:56:52.945Z,101423.34
2019-05-07T06:59:34.583Z,101417.01
2019-05-07T07:02:22.530Z,101420.42
2019-05-07T07:04:56.698Z,101417.44
2019-05-07T07:07:37.745Z,101420.12
2019-05-07T07:10:29.591Z,101423.84
2019-05-07T07:12:59.579Z,101421.86
2019-05-07T07:15:31.929Z,101425.55
2019-05-07T07:18:03.214Z,101417.95
2019-05-07T07:20:32.993Z,101419.91
2019-05-07T07:23:03.038Z,101417.42
2019-05-07T07:25:33.039Z,101416.41
2019-05-07T07:28:03.043Z,101413.51
2019-05-07T07:30:57.973Z,101410.94
2019-05-07T07:33:31.980Z,101408.34
2019-05-07T07:36:02.576Z,101412.25
2019-05-07T07:38:33.029Z,101410.66
2019-05-07T07:41:22.273Z,101408.93
2019-05-07T07:43:52.658Z,101408.33
2019-05-07T07:46:22.614Z,101409.89
2019-05-07T07:49:06.666Z,101409.67
2019-05-07T07:51:37.744Z,101406.97
2019-05-07T07:53:55.974Z,101409.94
2019-05-07T07:56:53.895Z,101403.66
2019-05-07T07:59:32.896Z,101407.15
2019-05-07T08:02:23.158Z,101404.88
2019-05-07T08:04:53.107Z,101405.44
2019-05-07T08:07:23.124Z,101404.66
2019-05-07T08:09:53.119Z,101395.05
2019-05-07T08:12:23.121Z,101403.98
2019-05-07T08:14:53.093Z,101404.98
2019-05-07T08:17:23.115Z,101395.34
2019-05-07T08:19:53.175Z,101400.47
2019-05-07T08:22:23.198Z,101400.63
2019-05-07T08:24:53.199Z,101395.53
2019-05-07T08:27:23.197Z,101387.16
2019-05-07T08:29:53.193Z,101387.70
2019-05-07T08:32:52.920Z,101392.39
2019-05-07T08:35:27.269Z,101378.14
2019-05-07T08:37:57.295Z,101390.58
2019-05-07T08:40:27.302Z,101386.50
2019-05-07T08:42:58.489Z,101385.50
2019-05-07T08:45:46.233Z,101389.73
2019-05-07T08:48:21.712Z,101379.64
2019-05-07T08:50:52.542Z,101382.14
2019-05-07T08:53:22.747Z,101376.25
2019-05-07T08:55:52.737Z,101380.46
2019-05-07T08:58:23.133Z,101381.56
2019-05-07T09:00:53.127Z,101383.35
2019-05-07T09:03:42.901Z,101380.77
2019-05-07T09:06:13.642Z,101381.25
2019-05-07T09:08:43.798Z,101388.03
2019-05-07T09:11:13.858Z,101383.64
2019-05-07T09:13:44.039Z,101387.08
2019-05-07T09:16:14.029Z,101380.73
2019-05-07T09:18:44.057Z,101374.63
2019-05-07T09:21:14.099Z,101369.52
2019-05-07T09:23:44.198Z,101372.05
2019-05-07T09:26:16.076Z,101362.50
2019-05-07T09:28:53.181Z,101370.47
2019-05-07T09:31:37.221Z,101369.01
2019-05-07T09:34:07.272Z,101366.13
2019-05-07T09:36:44.063Z,101371.95
2019-05-07T09:39:14.078Z,101370.17
2019-05-07T09:41:44.143Z,101365.91
2019-05-07T09:44:14.171Z,101371.77
2019-05-07T09:46:46.657Z,101365.85
2019-05-07T09:49:15.895Z,101370.58
2019-05-07T09:51:45.882Z,101363.11
2019-05-07T09:54:15.957Z,101354.19
2019-05-07T09:56:45.932Z,101350.11
2019-05-07T09:59:15.957Z,101340.99
2019-05-07T10:01:45.953Z,101346.55
2019-05-07T10:04:15.974Z,101341.56
2019-05-07T10:06:45.997Z,101339.06
2019-05-07T10:09:16.007Z,101341.44
2019-05-07T10:11:55.628Z,101341.15
2019-05-07T10:14:25.650Z,101342.22
2019-05-07T10:17:11.986Z,101340.42
2019-05-07T10:19:42.053Z,101340.64
2019-05-07T10:22:12.638Z,101338.70
2019-05-07T10:24:42.751Z,101337.47
2019-05-07T10:27:12.838Z,101345.80
2019-05-07T10:29:42.893Z,101343.92
2019-05-07T10:32:12.996Z,101340.45
2019-05-07T10:34:43.032Z,101336.69
2019-05-07T10:37:13.023Z,101328.47
2019-05-07T10:39:43.157Z,101323.27
2019-05-07T10:42:13.110Z,101323.27
2019-05-07T10:45:04.851Z,101328.37
2019-05-07T10:47:58.606Z,101324.38
2019-05-07T10:50:36.359Z,101319.14
2019-05-07T10:53:02.056Z,101317.11
2019-05-07T10:55:32.898Z,101315.03
2019-05-07T10:58:03.157Z,101319.54
2019-05-07T11:00:33.437Z,101322.84
2019-05-07T11:03:03.442Z,101312.51
2019-05-07T11:05:33.494Z,101316.29
2019-05-07T11:08:03.475Z,101313.12
2019-05-07T11:10:33.510Z,101307.77
2019-05-07T11:13:03.480Z,101306.70
2019-05-07T11:15:33.781Z,101299.08
2019-05-07T11:18:25.018Z,101292.55
2019-05-07T11:20:55.098Z,101287.73
2019-05-07T11:23:25.081Z,101289.44
2019-05-07T11:25:55.118Z,101287.42
2019-05-07T11:28:25.085Z,101278.20
2019-05-07T11:30:55.093Z,101276.47
2019-05-07T11:33:25.069Z,101271.40
2019-05-07T11:35:55.081Z,101271.98
2019-05-07T11:38:25.176Z,101273.55
2019-05-07T11:40:55.189Z,101280.44
2019-05-07T11:43:42.644Z,101276.06
2019-05-07T11:46:16.572Z,101269.92
2019-05-07T11:48:54.625Z,101266.98
2019-05-07T11:51:36.257Z,101279.06
2019-05-07T11:54:09.256Z,101278.39
2019-05-07T11:56:42.915Z,101271.63
2019-05-07T12:00:32.160Z,101272.36
2019-05-07T12:11:36.480Z,101262.81
2019-05-07T12:14:06.785Z,101273.80
2019-05-07T12:16:36.827Z,101260.52
2019-05-07T12:19:06.934Z,101257.91
2019-05-07T12:21:36.978Z,101265.19
2019-05-07T12:24:07.038Z,101266.43
2019-05-07T12:26:38.696Z,101266.23
2019-05-07T12:29:08.674Z,101257.00
2019-05-07T12:31:56.520Z,101253.83
2019-05-07T12:34:31.848Z,101253.18
2019-05-07T12:37:01.924Z,101250.21
2019-05-07T12:39:32.032Z,101242.75
2019-05-07T12:42:02.870Z,101247.28
2019-05-07T12:44:32.866Z,101240.14
2019-05-07T12:47:02.984Z,101237.37
2019-05-07T12:49:33.008Z,101239.06
2019-05-07T12:52:25.254Z,101236.98
2019-05-07T12:55:03.235Z,101233.50
2019-05-07T12:57:33.323Z,101221.06
2019-05-07T13:00:22.932Z,101214.66
2019-05-07T13:03:12.604Z,101218.61
2019-05-07T13:05:42.283Z,101209.48
2019-05-07T13:08:12.400Z,101220.20
2019-05-07T13:10:42.928Z,101214.84
2019-05-07T13:13:13.026Z,101210.16
2019-05-07T13:15:43.438Z,101217.19
2019-05-07T13:18:13.526Z,101211.50
2019-05-07T13:20:43.513Z,101206.73
2019-05-07T13:23:13.526Z,101211.54
2019-05-07T13:25:43.560Z,101197.81
2019-05-07T13:28:13.588Z,101204.13
2019-05-07T13:30:43.968Z,101196.89
2019-05-07T13:33:14.734Z,101199.48
2019-05-07T13:35:44.731Z,101195.78
2019-05-07T13:38:49.048Z,101187.35
2019-05-07T13:41:56.139Z,101191.91
2019-05-07T13:44:45.408Z,101188.86
2019-05-07T13:47:43.333Z,101192.50
2019-05-07T13:50:16.659Z,101185.26
2019-05-07T13:52:46.693Z,101183.80
2019-05-07T13:55:16.679Z,101183.01
2019-05-07T13:57:46.678Z,101185.39
2019-05-07T14:00:32.450Z,101176.57
2019-05-07T14:03:03.245Z,101174.66
2019-05-07T14:05:37.411Z,101158.38
2019-05-07T14:08:19.527Z,101169.56
2019-05-07T14:11:22.344Z,101167.95
2019-05-07T14:13:52.327Z,101172.45
2019-05-07T14:20:07.338Z,101162.30
2019-05-07T14:22:37.316Z,101165.98
2019-05-07T14:25:07.819Z,101165.03
2019-05-07T14:27:37.844Z,101162.72
2019-05-07T14:30:08.614Z,101158.74
2019-05-07T14:33:01.797Z,101161.63
2019-05-07T14:35:57.952Z,101157.81
2019-05-07T14:38:42.521Z,101156.02
2019-05-07T14:41:13.012Z,101155.91
2019-05-07T14:44:01.105Z,101152.22
2019-05-07T14:46:44.635Z,101154.41
2019-05-07T14:49:02.922Z,101141.87
2019-05-07T14:51:32.888Z,101149.08
2019-05-07T14:54:02.918Z,101145.94
2019-05-07T14:56:33.124Z,101146.23
2019-05-07T14:59:03.157Z,101147.94
2019-05-07T15:01:33.969Z,101141.63
2019-05-07T15:04:04.236Z,101141.91
2019-05-07T15:06:34.623Z,101141.36
2019-05-07T15:09:06.685Z,101137.25
2019-05-07T15:11:37.006Z,101140.48
2019-05-07T15:14:07.046Z,101142.27
2019-05-07T15:16:37.343Z,101137.77
2019-05-07T15:19:07.447Z,101134.91
2019-05-07T15:21:37.439Z,101133.80
2019-05-07T15:24:07.466Z,101134.57
2019-05-07T15:26:37.462Z,101129.32
2019-05-07T15:29:13.349Z,101131.31
2019-05-07T15:32:03.195Z,101129.75
2019-05-07T15:34:32.922Z,101131.50
2019-05-07T15:37:02.883Z,101131.66
2019-05-07T15:39:33.058Z,101127.72
2019-05-07T15:42:03.081Z,101127.11
2019-05-07T15:44:33.102Z,101123.15
2019-05-07T15:47:07.272Z,101116.88
2019-05-07T15:49:37.376Z,101115.17
2019-05-07T15:56:07.728Z,101106.00
2019-05-07T15:58:37.824Z,101105.53
2019-05-07T16:01:07.896Z,101109.43
2019-05-07T16:03:42.856Z,101102.48
2019-05-07T16:06:12.944Z,101106.58
2019-05-07T16:08:52.013Z,101109.37
2019-05-07T16:11:23.244Z,101103.78
2019-05-07T16:14:14.552Z,101107.80
2019-05-07T16:16:46.682Z,101102.52
2019-05-07T16:19:27.203Z,101097.45
2019-05-07T16:21:59.585Z,101093.00
2019-05-07T16:24:31.794Z,101091.10
2019-05-07T16:27:04.922Z,101087.52
2019-05-07T16:29:35.646Z,101088.28
2019-05-07T16:32:04.817Z,101087.97
2019-05-07T16:34:34.902Z,101091.41
2019-05-07T16:37:07.487Z,101074.69
2019-05-07T16:39:36.660Z,101086.17
2019-05-07T16:42:06.723Z,101089.58
2019-05-07T16:44:36.710Z,101085.73
2019-05-07T16:47:06.752Z,101081.96
2019-05-07T16:49:36.752Z,101079.25
2019-05-07T16:52:06.773Z,101088.03
2019-05-07T16:54:36.752Z,101078.11
2019-05-07T16:57:42.344Z,101079.39
2019-05-07T17:00:17.664Z,101077.48
2019-05-07T17:02:48.914Z,101069.75
2019-05-07T17:05:18.954Z,101074.96
2019-05-07T17:08:14.203Z,101070.00
2019-05-07T17:10:44.692Z,101079.17
2019-05-07T17:13:14.678Z,101080.70
2019-05-07T17:18:41.600Z,101077.00
2019-05-07T17:21:12.359Z,101070.48
2019-05-07T17:23:44.639Z,101072.59
2019-05-07T17:26:14.540Z,101067.30
2019-05-07T17:28:44.524Z,101064.05
2019-05-07T17:31:14.557Z,101068.37
2019-05-07T17:33:44.536Z,101062.39
2019-05-07T17:36:14.580Z,101059.23
2019-05-07T17:38:44.596Z,101061.31
2019-05-07T17:41:22.196Z,101060.91
2019-05-07T17:43:46.653Z,101059.69
2019-05-07T17:46:16.697Z,101059.91
2019-05-07T17:48:46.707Z,101061.05
2019-05-07T17:51:35.680Z,101056.98
2019-05-07T17:54:43.187Z,101055.84
2019-05-07T17:57:15.795Z,101052.44
2019-05-07T18:03:33.593Z,101054.80
2019-05-07T18:06:03.805Z,101055.91
2019-05-07T18:08:33.843Z,101052.33
2019-05-07T18:11:17.362Z,101048.80
2019-05-07T18:13:35.626Z,101042.81
2019-05-07T18:16:12.253Z,101042.16
2019-05-07T18:18:43.211Z,101041.78
2019-05-07T18:21:13.361Z,101046.94
2019-05-07T18:23:43.482Z,101043.47
2019-05-07T18:26:26.904Z,101048.17
2019-05-07T18:28:45.285Z,101047.55
2019-05-07T18:31:15.903Z,101041.60
2019-05-07T18:33:53.184Z,101040.74
2019-05-07T18:36:23.198Z,101039.25
2019-05-07T18:38:53.281Z,101033.39
2019-05-07T18:41:23.403Z,101040.84
2019-05-07T18:43:54.672Z,101040.53
2019-05-07T18:46:24.924Z,101046.03
2019-05-07T18:48:54.970Z,101045.12
2019-05-07T18:51:25.052Z,101044.20
2019-05-07T18:53:55.113Z,101039.18
2019-05-07T18:56:25.119Z,101042.74
2019-05-07T18:58:55.169Z,101040.33
2019-05-07T19:01:27.142Z,101042.45
2019-05-07T19:03:57.873Z,101045.62
2019-05-07T19:06:27.895Z,101036.38
2019-05-07T19:08:57.908Z,101040.75
2019-05-07T19:11:27.933Z,101041.90
2019-05-07T19:13:57.983Z,101042.95
2019-05-07T19:16:27.970Z,101049.38
2019-05-07T19:18:58.014Z,101046.52
2019-05-07T19:21:28.028Z,101052.30
2019-05-07T19:23:58.098Z,101055.00
2019-05-07T19:26:28.127Z,101058.36
2019-05-07T19:28:58.189Z,101057.20
2019-05-07T19:31:28.188Z,101053.45
2019-05-07T19:33:58.259Z,101056.55
2019-05-07T19:36:28.384Z,101055.55
2019-05-07T19:38:58.418Z,101055.55
2019-05-07T19:41:28.485Z,101062.89
2019-05-07T19:43:58.531Z,101060.98
2019-05-07T19:46:28.589Z,101051.98
2019-05-07T19:48:58.653Z,101051.98
2019-05-07T19:51:28.663Z,101062.47
2019-05-07T19:53:58.697Z,101059.02
2019-05-07T19:56:28.715Z,101052.71
2019-05-07T19:58:58.826Z,101053.83
2019-05-07T20:01:45.766Z,101051.91
2019-05-07T20:04:15.841Z,101062.81
2019-05-07T20:06:45.874Z,101057.37
2019-05-07T20:09:17.833Z,101060.30
2019-05-07T20:11:49.009Z,101059.06
2019-05-07T20:14:19.019Z,101056.02
2019-05-07T20:16:49.025Z,101056.02
2019-05-07T20:19:19.069Z,101059.84
2019-05-07T20:21:49.082Z,101053.23
2019-05-07T20:24:19.105Z,101055.40
2019-05-07T20:26:49.091Z,101046.60
2019-05-07T20:29:19.158Z,101049.47
2019-05-07T20:31:49.203Z,101060.28
2019-05-07T20:34:19.208Z,101052.99
2019-05-07T20:36:49.226Z,101052.83
2019-05-07T20:39:19.255Z,101047.39
2019-05-07T20:41:49.318Z,101042.02
2019-05-07T20:44:19.387Z,101038.34
2019-05-07T20:46:49.578Z,101038.89
2019-05-07T20:49:19.614Z,101037.89
2019-05-07T20:51:49.643Z,101035.70
2019-05-07T20:54:36.611Z,101040.20
2019-05-07T20:57:22.314Z,101039.55
2019-05-07T20:59:51.709Z,101036.52
2019-05-07T21:02:22.713Z,101036.63
2019-05-07T21:04:52.950Z,101030.97
2019-05-07T21:07:22.956Z,101025.82
2019-05-07T21:09:53.139Z,101029.69
2019-05-07T21:12:23.158Z,101030.13
2019-05-07T21:14:53.252Z,101029.39
2019-05-07T21:17:23.250Z,101023.67
2019-05-07T21:19:53.280Z,101019.81
2019-05-07T21:22:23.302Z,101016.23
2019-05-07T21:24:53.512Z,101013.43
2019-05-07T21:27:23.637Z,101017.94
2019-05-07T21:29:53.630Z,101010.46
2019-05-07T21:32:23.653Z,101010.46
2019-05-07T21:34:53.653Z,101007.94
2019-05-07T21:37:23.774Z,101009.17
2019-05-07T21:39:54.122Z,101003.73
2019-05-07T21:42:24.210Z,101001.16
2019-05-07T21:44:54.285Z,101003.83
2019-05-07T21:47:24.308Z,101001.05
2019-05-07T21:49:55.257Z,101004.03
2019-05-07T21:52:27.326Z,101001.22
2019-05-07T21:55:10.121Z,100998.87
2019-05-07T21:57:59.089Z,100988.90
2019-05-07T22:01:03.416Z,100993.16
2019-05-07T22:03:34.974Z,100985.45
2019-05-07T22:06:05.119Z,100979.48
2019-05-07T22:08:35.103Z,100977.05
2019-05-07T22:11:05.169Z,100983.03
2019-05-07T22:13:35.151Z,100978.98
2019-05-07T22:16:05.157Z,100971.27
2019-05-07T22:18:35.137Z,100972.18
2019-05-07T22:21:05.144Z,100975.77
2019-05-07T22:23:35.191Z,100973.34
2019-05-07T22:26:19.219Z,100969.69
2019-05-07T22:28:37.626Z,100959.27
2019-05-07T22:31:34.469Z,100964.39
2019-05-07T22:34:22.256Z,100955.10
2019-05-07T22:36:55.020Z,100953.98
2019-05-07T22:39:23.757Z,100954.33
2019-05-07T22:41:53.750Z,100950.45
2019-05-07T22:44:26.228Z,100950.52
2019-05-07T22:46:57.706Z,100949.02
2019-05-07T22:49:27.680Z,100943.88
2019-05-07T22:51:57.726Z,100935.42
2019-05-07T22:54:27.704Z,100935.38
2019-05-07T22:57:03.177Z,100928.97
2019-05-07T22:59:33.160Z,100919.63
2019-05-07T23:02:04.179Z,100924.65
2019-05-07T23:04:34.151Z,100917.77
2019-05-07T23:07:04.142Z,100921.51
2019-05-07T23:09:34.114Z,100918.28
2019-05-07T23:12:04.108Z,100916.31
2019-05-07T23:14:34.081Z,100909.61
2019-05-07T23:17:04.091Z,100912.03
2019-05-07T23:19:34.088Z,100904.14
2019-05-07T23:22:04.061Z,100897.70
2019-05-07T23:24:34.064Z,100894.47
2019-05-07T23:27:04.040Z,100893.52
2019-05-07T23:29:34.042Z,100893.06
2019-05-07T23:32:04.031Z,100893.27
2019-05-07T23:34:34.046Z,100892.00
2019-05-07T23:37:04.016Z,100890.95
2019-05-07T23:39:35.986Z,100892.46
2019-05-07T23:42:28.006Z,100899.89
2019-05-07T23:44:58.008Z,100898.62
2019-05-07T23:47:27.976Z,100891.51
2019-05-07T23:49:57.982Z,100884.11
2019-05-07T23:52:27.947Z,100886.88
2019-05-07T23:54:57.979Z,100877.48
2019-05-07T23:57:27.942Z,100878.91
2019-05-07T23:59:57.924Z,100877.57
